地図

経路データ

SID SEASON NUMBER BASIN SUBBASIN NAME ISO_TIME NATURE LAT LON WMO_WIND WMO_PRES WMO_AGENCY TRACK_TYPE DIST2LAND LANDFALL IFLAG USA_AGENCY USA_ATCF_ID USA_LAT USA_LON USA_RECORD USA_STATUS USA_WIND USA_PRES USA_SSHS USA_R34_NE USA_R34_SE USA_R34_SW USA_R34_NW USA_R50_NE USA_R50_SE USA_R50_SW USA_R50_NW USA_R64_NE USA_R64_SE USA_R64_SW USA_R64_NW USA_POCI USA_ROCI USA_RMW USA_EYE TOKYO_LAT TOKYO_LON TOKYO_GRADE TOKYO_WIND TOKYO_PRES TOKYO_R50_DIR TOKYO_R50_LONG TOKYO_R50_SHORT TOKYO_R30_DIR TOKYO_R30_LONG TOKYO_R30_SHORT TOKYO_LAND CMA_LAT CMA_LON CMA_CAT CMA_WIND CMA_PRES HKO_LAT HKO_LON HKO_CAT HKO_WIND HKO_PRES NEWDELHI_LAT NEWDELHI_LON NEWDELHI_GRADE NEWDELHI_WIND NEWDELHI_PRES NEWDELHI_CI NEWDELHI_DP NEWDELHI_POCI REUNION_LAT REUNION_LON REUNION_TYPE REUNION_WIND REUNION_PRES REUNION_TNUM REUNION_CI REUNION_RMW REUNION_R34_NE REUNION_R34_SE REUNION_R34_SW REUNION_R34_NW REUNION_R50_NE REUNION_R50_SE REUNION_R50_SW REUNION_R50_NW REUNION_R64_NE REUNION_R64_SE REUNION_R64_SW REUNION_R64_NW BOM_LAT BOM_LON BOM_TYPE BOM_WIND BOM_PRES BOM_TNUM BOM_CI BOM_RMW BOM_R34_NE BOM_R34_SE BOM_R34_SW BOM_R34_NW BOM_R50_NE BOM_R50_SE BOM_R50_SW BOM_R50_NW BOM_R64_NE BOM_R64_SE BOM_R64_SW BOM_R64_NW BOM_ROCI BOM_POCI BOM_EYE BOM_POS_METHOD BOM_PRES_METHOD NADI_LAT NADI_LON NADI_CAT NADI_WIND NADI_PRES WELLINGTON_LAT WELLINGTON_LON WELLINGTON_WIND WELLINGTON_PRES DS824_LAT DS824_LON DS824_STAGE DS824_WIND DS824_PRES TD9636_LAT TD9636_LON TD9636_STAGE TD9636_WIND TD9636_PRES TD9635_LAT TD9635_LON TD9635_WIND TD9635_PRES TD9635_ROCI NEUMANN_LAT NEUMANN_LON NEUMANN_CLASS NEUMANN_WIND NEUMANN_PRES MLC_LAT MLC_LON MLC_CLASS MLC_WIND MLC_PRES USA_GUST BOM_GUST BOM_GUST_PER REUNION_GUST REUNION_GUST_PER USA_SEAHGT USA_SEARAD_NE USA_SEARAD_SE USA_SEARAD_SW USA_SEARAD_NW STORM_SPEED STORM_DIR
1992194N07140 1992 50 WP MM FAYE 1992-07-11 12:00:00 NR 7.10000 140.200 main 999 990 O_____________ jtwc_wp WP061992 7.10000 140.200 15 -1 11 285
1992194N07140 1992 50 WP MM FAYE 1992-07-11 15:00:00 NR 7.24012 139.658 main 990 983 P_____________ WP061992 7.24012 139.658 15 -1 11 285
1992194N07140 1992 50 WP MM FAYE 1992-07-11 18:00:00 NR 7.40000 139.100 main 985 977 O_____________ jtwc_wp WP061992 7.40000 139.100 15 -1 12 287
1992194N07140 1992 50 WP MM FAYE 1992-07-11 21:00:00 NR 7.59242 138.515 main 984 977 P_____________ WP061992 7.59242 138.515 15 -1 13 289
1992194N07140 1992 50 WP MM FAYE 1992-07-12 00:00:00 NR 7.80000 137.900 main 986 983 O_____________ jtwc_wp WP061992 7.80000 137.900 15 -1 13 288
1992194N07140 1992 50 WP MM FAYE 1992-07-12 03:00:00 NR 7.99990 137.265 main 992 989 P_____________ WP061992 7.99990 137.265 15 -1 14 287
1992194N07140 1992 50 WP MM FAYE 1992-07-12 06:00:00 NR 8.20000 136.600 main 1003 1001 O_____________ jtwc_wp WP061992 8.20000 136.600 15 -1 14 286
1992194N07140 1992 50 WP MM FAYE 1992-07-12 09:00:00 NR 8.39245 135.900 main 1020 952 P_____________ WP061992 8.39245 135.900 15 -1 14 286
1992194N07140 1992 50 WP MM FAYE 1992-07-12 12:00:00 NR 8.60000 135.200 main 952 889 O_____________ jtwc_wp WP061992 8.60000 135.200 15 -1 14 288
1992194N07140 1992 50 WP MM FAYE 1992-07-12 15:00:00 NR 8.82727 134.557 main 889 818 P_____________ WP061992 8.82727 134.557 15 -1 14 291
1992194N07140 1992 50 WP MM FAYE 1992-07-12 18:00:00 NR 9.10000 133.900 main 818 750 O_____________ jtwc_wp WP061992 9.10000 133.900 15 -1 15 293
1992194N07140 1992 50 WP MM FAYE 1992-07-12 21:00:00 NR 9.41994 133.165 main 750 679 P_____________ WP061992 9.41994 133.165 15 -1 16 295
1992194N07140 1992 50 WP MM FAYE 1992-07-13 00:00:00 NR 9.80000 132.400 main 679 613 O_____________ jtwc_wp WP061992 9.80000 132.400 15 -1 17 298
1992194N07140 1992 50 WP MM FAYE 1992-07-13 03:00:00 NR 10.2199 131.635 main 602 541 P_____________ WP061992 10.2199 131.635 15 -1 17 301
1992194N07140 1992 50 WP MM FAYE 1992-07-13 06:00:00 NR 10.7000 130.900 main 541 491 O_____________ jtwc_wp WP061992 10.7000 130.900 15 -1 17 306
1992194N07140 1992 50 WP MM FAYE 1992-07-13 09:00:00 NR 11.2348 130.235 main 480 424 P_____________ WP061992 11.2348 130.235 15 -1 17 311
1992194N07140 1992 50 WP MM FAYE 1992-07-13 12:00:00 NR 11.8000 129.600 main 424 377 O_____________ jtwc_wp WP061992 11.8000 129.600 15 -1 17 311
1992194N07140 1992 50 WP MM FAYE 1992-07-13 15:00:00 NR 12.3575 128.920 main 370 314 P_____________ WP061992 12.3575 128.920 15 -1 17 311
1992194N07140 1992 50 WP MM FAYE 1992-07-13 18:00:00 NR 12.9000 128.300 main 314 283 O_____________ jtwc_wp WP061992 12.9000 128.300 15 -1 15 315
1992194N07140 1992 50 WP MM FAYE 1992-07-13 21:00:00 NR 13.4147 127.820 main 283 272 P_____________ WP061992 13.4147 127.820 17 -1 13 319
1992194N07140 1992 50 WP MM FAYE 1992-07-14 00:00:00 NR 13.9000 127.400 main 280 280 O_____________ jtwc_wp WP061992 13.9000 127.400 20 -1 13 318
1992194N07140 1992 50 WP MM FAYE 1992-07-14 03:00:00 NR 14.3499 126.957 main 280 247 P_____________ WP061992 14.3499 126.957 20 -1 13 316
1992194N07140 1992 50 WP MM FAYE 1992-07-14 06:00:00 NR 14.8000 126.500 main 247 232 O_____________ jtwc_wp WP061992 14.8000 126.500 20 -1 13 316
1992194N07140 1992 50 WP MM FAYE 1992-07-14 09:00:00 NR 15.2999 126.015 main 232 232 P_____________ WP061992 15.2999 126.015 20 -1 14 316
1992194N07140 1992 50 WP MM FAYE 1992-07-14 12:00:00 NR 15.8000 125.500 main 239 239 O_____________ jtwc_wp WP061992 15.8000 125.500 20 -1 14 314
1992194N07140 1992 50 WP MM FAYE 1992-07-14 15:00:00 NR 16.2798 124.972 main 268 203 P_____________ WP061992 16.2798 124.972 22 -1 14 310
1992194N07140 1992 50 WP MM FAYE 1992-07-14 18:00:00 NR 16.7000 124.400 main 203 138 O_____________ jtwc_wp WP061992 16.7000 124.400 25 -1 14 303
1992194N07140 1992 50 WP MM FAYE 1992-07-14 21:00:00 NR 17.0224 123.765 main 138 85 P_____________ WP061992 17.0224 123.765 25 -1 12 287
1992194N07140 1992 50 WP MM FAYE 1992-07-15 00:00:00 TS 17.0333 123.233 1008 tokyo main 74 21 OOO___________ jtwc_wp WP061992 17.3000 123.100 25 -1 16.5000 123.500 2 1008 0 0 0 16.5000 123.500 1 23 1006 12 281
1992194N07140 1992 50 WP MM FAYE 1992-07-15 03:00:00 TS 17.2601 122.533 main 10 0 PPP___________ WP061992 17.6147 122.457 22 -1 16.9056 122.603 2 1007 0 0 16.9055 122.613 1 23 1006 15 290
1992194N07140 1992 50 WP MM FAYE 1992-07-15 06:00:00 TS 17.5400 121.740 1006 tokyo main 0 0 OOO___________ jtwc_wp WP061992 17.9000 121.800 20 -1 17.3000 121.700 2 1006 0 0 0 17.3000 121.700 1 23 1006 17 290
1992194N07140 1992 50 WP MM FAYE 1992-07-15 09:00:00 TS 17.8225 120.896 main 0 0 PPP___________ WP061992 18.1223 121.107 20 -1 17.6725 120.805 2 1005 0 0 17.6727 120.775 1 26 1005 16 290
1992194N07140 1992 50 WP MM FAYE 1992-07-15 12:00:00 TS 18.1000 120.133 1004 tokyo main 42 42 OOO___________ jtwc_wp WP061992 18.3000 120.400 20 -1 18.0000 120.000 2 1004 0 0 0 18.0000 120.000 1 29 1004 14 292
1992194N07140 1992 50 WP MM FAYE 1992-07-15 15:00:00 TS 18.3311 119.544 main 107 107 PPP___________ WP061992 18.4572 119.700 20 -1 18.2718 119.370 2 1004 0 0 18.2641 119.562 1 29 1004 12 292
1992194N07140 1992 50 WP MM FAYE 1992-07-15 18:00:00 TS 18.5333 119.000 1004 tokyo main 164 164 OOO___________ jtwc_wp WP061992 18.6000 119.000 20 -1 18.5000 118.800 2 1004 0 0 0 18.5000 119.200 1 29 1004 12 290
1992194N07140 1992 50 WP MM FAYE 1992-07-15 21:00:00 TS 18.7456 118.370 main 231 231 PPP___________ WP061992 18.7499 118.285 22 -1 18.7148 118.157 2 1004 0 0 18.7721 118.668 1 29 1004 13 288
1992194N07140 1992 50 WP MM FAYE 1992-07-16 00:00:00 TS 18.9333 117.700 1004 tokyo main 308 308 OOO___________ jtwc_wp WP061992 18.9000 117.600 25 -1 18.9000 117.500 2 1004 0 0 0 19.0000 118.000 1 29 1004 14 284
1992194N07140 1992 50 WP MM FAYE 1992-07-16 03:00:00 TS 19.0793 116.980 main 385 385 PPP___________ WP061992 19.0498 116.962 25 -1 19.0650 116.827 2 1004 0 0 19.1230 117.150 1 29 1004 14 281
1992194N07140 1992 50 WP MM FAYE 1992-07-16 06:00:00 TS 19.2000 116.300 1004 tokyo main 394 369 OOO___________ jtwc_wp WP061992 19.2000 116.400 25 -1 19.2000 116.200 2 1004 0 0 0 19.2000 116.300 1 29 1004 12 282
1992194N07140 1992 50 WP MM FAYE 1992-07-16 09:00:00 TS 19.3188 115.743 main 365 340 PPP___________ WP061992 19.3571 115.942 25 -1 19.2999 115.647 2 1004 0 0 19.2996 115.640 1 29 1002 10 283
1992194N07140 1992 50 WP MM FAYE 1992-07-16 12:00:00 TS 19.4333 115.267 1004 tokyo main 340 317 OOO___________ jtwc_wp WP061992 19.5000 115.500 25 -1 19.4000 115.200 2 1004 0 0 0 19.4000 115.100 1 29 1000 9 283
1992194N07140 1992 50 WP MM FAYE 1992-07-16 15:00:00 TS 19.5300 114.786 main 317 285 PPP___________ WP061992 19.5852 114.927 25 -1 19.5273 114.855 2 1004 0 0 19.4775 114.575 1 29 999 9 286
1992194N07140 1992 50 WP MM FAYE 1992-07-16 18:00:00 TS 19.6667 114.400 1004 tokyo main 285 256 OOO___________ jtwc_wp WP061992 19.7000 114.400 25 -1 19.7000 114.600 2 1004 0 0 0 19.6000 114.200 1 29 998 7 301
1992194N07140 1992 50 WP MM FAYE 1992-07-16 21:00:00 TS 19.8940 114.145 main 251 226 PPP___________ WP061992 19.9198 114.018 27 -1 19.9350 114.370 2 1004 0 0 19.8273 114.047 1 33 996 6 323
1992194N07140 1992 50 WP MM FAYE 1992-07-17 00:00:00 TS 20.1615 114.008 1004 tokyo main 216 191 OOOO__________ jtwc_wp WP061992 20.2000 113.800 30 -1 20.2000 114.200 2 1004 0 0 0 20.1000 114.000 2 38 995 20.1000 114.100 TD 25 1002 6 340
1992194N07140 1992 50 WP MM FAYE 1992-07-17 03:00:00 TS 20.4175 113.940 main 191 163 PPPP__________ WP061992 20.4999 113.755 32 -1 20.4500 114.077 2 1002 0 0 20.3125 113.900 2 38 993 20.3975 114.115 TD 27 1001 5 351
1992194N07140 1992 50 WP MM FAYE 1992-07-17 06:00:00 TS 20.7000 113.913 35 1000 tokyo main 163 137 OOOO__________ jtwc_wp WP061992 20.8000 113.800 35 0 20.7000 114.000 3 35 1000 0 9 30 30 0 20.6000 113.800 2 38 992 20.7000 114.100 TD 30 1000 6 354
1992194N07140 1992 50 WP MM FAYE 1992-07-17 09:00:00 TS 21.0344 113.868 main 137 103 PPPP__________ WP061992 21.0575 113.800 35 0 20.9500 113.942 3 35 1000 0 9 30 30 21.1225 113.700 2 43 990 21.0075 114.030 TD 32 999 7 351
1992194N07140 1992 50 WP MM FAYE 1992-07-17 12:00:00 TS 21.3500 113.800 35 1000 tokyo main 93 69 OOOO__________ jtwc_wp WP061992 21.3000 113.800 35 0 21.2000 113.900 3 35 1000 0 9 30 30 0 21.6000 113.600 3 48 988 21.3000 113.900 TS 35 998 6 344
1992194N07140 1992 50 WP MM FAYE 1992-07-17 15:00:00 TS 21.5700 113.699 main 69 45 PPPP__________ WP061992 21.5500 113.800 40 0 21.4425 113.850 3 35 1000 0 9 30 30 21.7375 113.477 3 43 990 21.5501 113.670 TS 37 997 5 339
1992194N07140 1992 50 WP MM FAYE 1992-07-17 18:00:00 TS 21.7750 113.625 35 1000 tokyo main 45 24 OOOO__________ jtwc_wp WP061992 21.8000 113.800 45 0 21.7000 113.800 3 35 1000 0 9 30 30 0 21.8000 113.400 2 38 992 21.8000 113.500 TS 40 997 5 350
1992194N07140 1992 50 WP MM FAYE 1992-07-17 21:00:00 TS 22.0312 113.614 main 24 10 PPPP__________ WP061992 22.0349 113.763 50 0 21.9850 113.735 3 35 1000 0 9 30 30 22.0125 113.420 2 38 992 22.0924 113.540 TS 42 996 6 5
1992194N07140 1992 50 WP MM FAYE 1992-07-18 00:00:00 TS 22.3267 113.687 35 1000 tokyo main 20 10 OOOO__________ jtwc_wp WP061992 22.3000 113.800 55 0 22.3000 113.700 3 35 1000 0 9 30 30 0 22.3000 113.500 2 38 992 22.4000 113.700 TS 45 995 7 17
1992194N07140 1992 50 WP MM FAYE 1992-07-18 03:00:00 TS 22.6539 113.825 main 10 0 PPPP__________ WP061992 22.6350 114.005 45 0 22.6349 113.705 3 35 1000 0 9 30 30 22.6375 113.597 2 33 993 22.7000 113.878 TS 42 996 7 25
1992194N07140 1992 50 WP MM FAYE 1992-07-18 06:00:00 TS 23.0000 114.030 35 1000 tokyo main 0 0 OOOO__________ jtwc_wp WP061992 23.0000 114.300 35 0 23.0000 113.800 3 35 1000 0 9 30 30 0 23.0000 113.700 1 29 995 23.0000 114.100 TS 40 997 8 33
1992194N07140 1992 50 WP MM FAYE 1992-07-18 09:00:00 TS 23.3493 114.321 main 0 0 PP_P__________ WP061992 23.3551 114.602 32 -1 23.3927 114.015 3 1001 0 9 1 23.3001 114.345 TS 32 998 9 37
1992194N07140 1992 50 WP MM FAYE 1992-07-18 12:00:00 TS 23.7000 114.600 1002 tokyo main 0 OO_O__________ jtwc_wp WP061992 23.7000 114.900 30 -1 23.8000 114.300 2 1002 0 0 0 23.6000 114.600 TD 25 1000 9 36

デジタル台風データ・検索

IBTrACS Databaseについて

本データベースは、米国NOAAが公開する1842年以降の世界の熱帯低気圧のベストトラックデータアーカイブInternational Best Track Archive for Climate Stewardship (IBTrACS)を、ウェブで閲覧しやすい形式に変換したものです。

最終更新日:2021-10-08